Time;durP1;ratioP1;P1;durP2;ratioP2;P2;SDS_P1;SDS_P2;PMS_P1;PMS_P2;Temp;Humidity;BMP_temperature;BMP_pressure;BME280_temperature;BME280_humidity;BME280_pressure;Samples;Min_cycle;Max_cycle;Signal;HPM_P1;HPM_P2
2021/06/14 03:55:36;;;;;;;15.48;8.55;;;;;;;;;;5980199;23;20104;-73
2021/06/14 05:02:03;;;;;;;16.50;7.78;;;16.00;96.80;;;;;;5980025;23;20038;31
2021/06/14 05:04:28;;;;;;;13.00;7.07;;;16.10;96.80;;;;;;4885316;29;20045;-85
2021/06/14 05:06:54;;;;;;;11.75;7.57;;;16.10;96.80;;;;;;4889077;29;20036;-81
2021/06/14 05:09:19;;;;;;;49.08;36.88;;;16.20;96.80;;;;;;4891592;29;20054;-84
2021/06/14 05:11:47;;;;;;;18.60;9.13;;;16.20;96.80;;;;;;4858833;29;20044;-79
2021/06/14 05:14:12;;;;;;;14.35;7.75;;;16.30;96.80;;;;;;4873801;29;20033;-80
2021/06/14 05:16:38;;;;;;;12.70;6.95;;;16.40;96.60;;;;;;4875089;29;20029;-79
2021/06/14 05:19:04;;;;;;;10.68;6.70;;;16.40;96.60;;;;;;4876080;29;20443;-79
2021/06/14 05:21:29;;;;;;;11.98;6.53;;;16.50;96.30;;;;;;4876233;29;20052;-79
2021/06/14 05:23:55;;;;;;;11.60;6.88;;;16.50;96.10;;;;;;4879958;29;20033;-81
2021/06/14 05:26:20;;;;;;;9.77;6.35;;;16.50;96.20;;;;;;4876055;29;20036;-81
2021/06/14 05:28:45;;;;;;;12.48;6.88;;;16.60;96.10;;;;;;4879199;29;20029;-81
2021/06/14 05:31:11;;;;;;;12.35;6.95;;;16.60;96.00;;;;;;4884738;29;20315;-80
2021/06/14 05:33:37;;;;;;;12.85;6.25;;;16.80;95.60;;;;;;4881613;29;20033;-81
2021/06/14 05:36:04;;;;;;;12.98;6.18;;;16.80;95.60;;;;;;4881907;29;20021;-81
2021/06/14 05:38:29;;;;;;;10.45;6.25;;;16.90;95.60;;;;;;4880590;29;20026;-80
2021/06/14 05:40:55;;;;;;;11.60;5.68;;;17.10;95.60;;;;;;4880962;29;20089;-81
2021/06/14 05:43:21;;;;;;;13.25;6.25;;;17.20;95.20;;;;;;4883182;29;20486;-81
2021/06/14 05:45:46;;;;;;;10.30;5.95;;;17.30;95.00;;;;;;4882220;29;20147;-81
2021/06/14 05:48:12;;;;;;;10.82;5.80;;;17.40;94.80;;;;;;4883023;29;20638;-80
2021/06/14 05:50:41;;;;;;;8.00;5.05;;;17.50;94.40;;;;;;4883506;29;20029;-81
2021/06/14 05:53:06;;;;;;;11.88;4.82;;;17.50;94.20;;;;;;4877998;29;20056;-81
2021/06/14 05:55:32;;;;;;;10.32;6.40;;;17.50;93.80;;;;;;4881906;29;20037;-81
2021/06/14 05:57:58;;;;;;;12.82;5.30;;;17.60;94.10;;;;;;4883251;29;20041;-81
2021/06/14 06:00:23;;;;;;;7.30;4.97;;;17.60;93.90;;;;;;4883864;29;20410;-81
2021/06/14 06:02:49;;;;;;;9.77;5.22;;;17.70;93.50;;;;;;4884208;29;20053;-80
2021/06/14 06:05:15;;;;;;;12.20;5.63;;;17.80;93.40;;;;;;4899244;29;20040;-81
2021/06/14 06:07:41;;;;;;;11.50;4.80;;;17.90;93.20;;;;;;4896672;29;20033;-80
2021/06/14 06:10:09;;;;;;;8.88;4.53;;;18.00;92.70;;;;;;4894596;29;20105;-80
2021/06/14 06:12:35;;;;;;;10.07;5.28;;;18.20;92.30;;;;;;4892336;29;20032;-80
2021/06/14 06:15:02;;;;;;;10.00;4.93;;;18.30;92.30;;;;;;4888606;29;20028;-79
2021/06/14 06:17:29;;;;;;;8.30;4.95;;;18.40;91.80;;;;;;4889060;29;20032;-79
2021/06/14 06:19:54;;;;;;;9.73;5.60;;;18.60;91.50;;;;;;4891396;29;20048;-79
2021/06/14 06:22:25;;;;;;;10.38;6.32;;;19.30;90.40;;;;;;4889016;29;20508;-78
2021/06/14 06:24:51;;;;;;;11.15;5.22;;;19.20;90.60;;;;;;4880709;29;20017;-79
2021/06/14 06:27:17;;;;;;;9.23;5.13;;;19.40;90.00;;;;;;4893888;29;20039;-89
2021/06/14 06:29:43;;;;;;;10.80;5.13;;;19.40;90.10;;;;;;4888011;29;20036;-90
2021/06/14 06:32:12;;;;;;;7.20;4.47;;;19.60;89.50;;;;;;4891618;29;20070;-88
2021/06/14 06:34:38;;;;;;;9.40;6.50;;;20.20;87.60;;;;;;4899551;29;20421;-86
2021/06/14 06:37:07;;;;;;;7.65;4.97;;;21.10;84.30;;;;;;4887205;29;20054;-88
2021/06/14 06:39:32;;;;;;;9.90;4.82;;;22.40;79.70;;;;;;4892937;29;20029;-90
2021/06/14 06:42:00;;;;;;;10.32;6.70;;;23.00;77.50;;;;;;4894501;29;20037;-87
2021/06/14 06:44:26;;;;;;;7.72;5.55;;;24.30;73.90;;;;;;4900270;29;20035;-88
2021/06/14 06:46:51;;;;;;;9.13;5.18;;;26.20;67.50;;;;;;4889284;29;20037;-79
2021/06/14 06:49:17;;;;;;;8.00;4.97;;;27.40;63.70;;;;;;4882997;29;20508;-79
2021/06/14 06:51:42;;;;;;;10.73;5.45;;;28.20;59.50;;;;;;4883672;29;20045;-80
2021/06/14 06:54:11;;;;;;;9.57;5.07;;;28.50;57.70;;;;;;4886092;29;20029;-80
2021/06/14 06:56:41;;;;;;;8.65;4.32;;;28.50;56.90;;;;;;4885784;29;20435;-80
2021/06/14 06:59:07;;;;;;;;;;;29.30;55.50;;;;;;4886501;29;20037;-80
2021/06/14 07:01:33;;;;;;;8.40;4.97;;;29.80;53.90;;;;;;4885240;29;20020;-80
2021/06/14 07:03:58;;;;;;;8.32;5.03;;;29.60;53.30;;;;;;4885092;29;20052;-80
2021/06/14 07:06:24;;;;;;;4.93;3.78;;;29.60;53.20;;;;;;4885829;29;20478;-81
2021/06/14 07:08:49;;;;;;;6.55;3.90;;;30.60;51.70;;;;;;4883607;29;20032;-81
2021/06/14 07:11:15;;;;;;;8.02;5.07;;;30.70;51.00;;;;;;4886673;29;20051;-81
2021/06/14 07:13:40;;;;;;;8.00;4.20;;;29.70;51.10;;;;;;4884319;29;20032;-81
2021/06/14 07:16:06;;;;;;;6.93;4.32;;;30.40;51.60;;;;;;4885748;29;20072;-82
2021/06/14 07:18:31;;;;;;;7.07;4.03;;;30.90;50.50;;;;;;4885900;29;20104;-80
2021/06/14 07:20:59;;;;;;;5.47;3.83;;;31.30;49.50;;;;;;4885378;29;20033;-83
2021/06/14 07:23:25;;;;;;;5.45;4.03;;;31.10;49.40;;;;;;4883640;29;20056;-82
2021/06/14 07:25:50;;;;;;;7.63;5.00;;;31.70;48.40;;;;;;4891938;29;20446;-82
2021/06/14 07:28:16;;;;;;;6.57;4.47;;;32.40;48.10;;;;;;4889696;29;20134;-84
2021/06/14 07:30:42;;;;;;;9.90;4.75;;;30.40;48.90;;;;;;4890269;29;20124;-83
2021/06/14 07:33:07;;;;;;;7.20;4.32;;;31.30;48.50;;;;;;4895334;29;20612;-83
2021/06/14 07:35:35;;;;;;;8.18;6.30;;;31.70;48.20;;;;;;4887249;29;20123;-84
2021/06/14 07:38:00;;;;;;;9.55;4.30;;;31.80;48.10;;;;;;4885397;29;20029;-84
2021/06/14 07:40:29;;;;;;;9.55;6.40;;;31.80;48.60;;;;;;4887532;29;20025;-83
2021/06/14 07:42:55;;;;;;;10.68;4.63;;;30.90;47.90;;;;;;4890719;29;20028;-85
2021/06/14 07:45:25;;;;;;;10.52;5.32;;;30.90;48.70;;;;;;4887595;29;20040;-84
2021/06/14 07:47:51;;;;;;;9.68;5.75;;;29.90;49.30;;;;;;4889417;29;20044;-84
2021/06/14 07:50:17;;;;;;;9.10;4.68;;;29.60;49.80;;;;;;4894721;29;20028;-84
2021/06/14 07:52:43;;;;;;;8.55;4.57;;;29.90;49.80;;;;;;4889656;29;20153;-84
2021/06/14 07:55:13;;;;;;;7.00;4.35;;;31.50;47.50;;;;;;4891065;29;20051;-84
2021/06/14 07:57:39;;;;;;;6.70;4.60;;;32.20;48.40;;;;;;4888430;29;20096;-84
2021/06/14 08:00:07;;;;;;;10.95;5.28;;;30.80;48.50;;;;;;4894684;29;20273;-82
2021/06/14 08:02:35;;;;;;;5.78;4.00;;;31.50;47.90;;;;;;4890272;29;20047;-82
2021/06/14 08:05:02;;;;;;;7.03;3.90;;;32.20;46.40;;;;;;4894400;29;20040;-82
2021/06/14 08:07:28;;;;;;;7.40;4.38;;;30.80;47.00;;;;;;4888051;29;20770;-80
2021/06/14 08:09:59;;;;;;;5.40;3.65;;;30.40;48.80;;;;;;4895732;29;20054;-82
2021/06/14 08:12:25;;;;;;;5.40;3.78;;;32.10;47.20;;;;;;4895603;29;20048;-81
2021/06/14 08:14:50;;;;;;;8.15;4.18;;;32.20;46.50;;;;;;4895857;29;20029;-85
2021/06/14 08:17:16;;;;;;;6.57;3.42;;;33.00;45.80;;;;;;4895359;29;20025;-83
2021/06/14 08:20:07;;;;;;;7.40;3.80;;;32.80;45.40;;;;;;4895796;29;20028;-84
2021/06/14 08:22:37;;;;;;;7.45;4.07;;;34.40;44.70;;;;;;4895175;29;20047;-82
2021/06/14 08:25:09;;;;;;;6.55;3.35;;;32.90;44.80;;;;;;4902562;29;20088;-82
2021/06/14 08:27:44;;;;;;;6.40;4.25;;;32.70;44.40;;;;;;4904656;29;20092;-83
2021/06/14 08:30:28;;;;;;;10.20;3.83;;;32.50;45.10;;;;;;4901292;29;20048;-83
2021/06/14 08:32:54;;;;;;;8.07;4.30;;;30.80;46.60;;;;;;4893181;29;20032;-85
2021/06/14 08:35:23;;;;;;;7.80;3.83;;;31.50;45.90;;;;;;4891215;29;20056;-84
2021/06/14 08:37:51;;;;;;;6.40;3.75;;;31.60;46.40;;;;;;4894793;29;20169;-82
2021/06/14 08:40:19;;;;;;;7.93;4.13;;;31.80;45.10;;;;;;4894574;29;20025;-83
2021/06/14 08:42:45;;;;;;;5.07;3.47;;;33.40;44.50;;;;;;4894588;29;20085;-83
2021/06/14 08:45:12;;;;;;;6.50;3.60;;;32.90;44.20;;;;;;4894062;29;20128;-84
2021/06/14 08:47:39;;;;;;;5.78;3.80;;;31.90;44.80;;;;;;4894852;29;20036;-84
2021/06/14 08:50:07;;;;;;;7.43;4.45;;;32.00;45.20;;;;;;4894966;29;20070;-83
2021/06/14 08:52:34;;;;;;;6.22;3.53;;;32.50;44.80;;;;;;4895614;29;20029;-84
2021/06/14 08:55:00;;;;;;;6.63;3.40;;;31.20;45.50;;;;;;4898793;29;20032;-84
2021/06/14 08:57:26;;;;;;;6.47;3.50;;;29.40;47.20;;;;;;4902567;29;20042;-84
2021/06/14 08:59:51;;;;;;;4.97;3.95;;;29.60;48.60;;;;;;4900477;29;20382;-84
2021/06/14 09:02:17;;;;;;;7.80;3.72;;;31.50;46.10;;;;;;4896605;29;20036;-82
2021/06/14 09:04:42;;;;;;;8.35;3.97;;;31.70;44.80;;;;;;4897519;29;20028;-83
2021/06/14 09:07:08;;;;;;;7.32;4.03;;;30.80;46.30;;;;;;4897892;29;20028;-83
2021/06/14 09:09:34;;;;;;;8.90;4.45;;;31.10;45.60;;;;;;4897483;29;20389;-83
2021/06/14 09:12:02;;;;;;;6.05;3.90;;;31.00;46.10;;;;;;4897938;29;20089;-84
2021/06/14 09:14:32;;;;;;;9.80;6.03;;;32.40;44.70;;;;;;4897656;29;20293;-83
2021/06/14 09:17:10;;;;;;;6.07;3.83;;;32.30;45.00;;;;;;4897633;29;20029;-83
2021/06/14 09:20:00;;;;;;;7.72;3.85;;;31.70;45.30;;;;;;4897724;29;20035;-83
2021/06/14 09:22:27;;;;;;;5.30;3.30;;;31.60;46.00;;;;;;4894651;29;20553;-83
2021/06/14 09:25:28;;;;;;;5.88;3.30;;;34.30;42.80;;;;;;4898593;29;20028;-85
2021/06/14 09:27:55;;;;;;;7.57;3.95;;;32.60;42.50;;;;;;4861833;29;20040;-85
2021/06/14 09:30:33;;;;;;;5.57;3.67;;;34.60;42.00;;;;;;4899713;29;20397;-83
2021/06/14 09:32:59;;;;;;;6.22;3.75;;;;;;;;;;4898256;29;20563;-83
2021/06/14 09:35:41;;;;;;;4.90;3.33;;;31.50;44.90;;;;;;4897277;29;20151;-85
2021/06/14 09:38:11;;;;;;;5.40;3.78;;;31.00;45.70;;;;;;4884225;29;20088;-82
2021/06/14 09:40:44;;;;;;;6.10;4.50;;;31.20;46.20;;;;;;4899303;29;20051;-83
2021/06/14 09:43:37;;;;;;;6.13;3.42;;;30.70;46.60;;;;;;4900463;29;20088;-81
2021/06/14 09:46:05;;;;;;;5.68;3.20;;;30.90;46.20;;;;;;4897875;29;20044;-83
2021/06/14 09:49:00;;;;;;;9.93;4.75;;;31.30;45.70;;;;;;4900348;29;20033;-82
2021/06/14 09:51:26;;;;;;;6.47;3.80;;;31.40;46.30;;;;;;4899027;29;20108;-83
2021/06/14 09:53:54;;;;;;;7.22;4.03;;;32.70;44.60;;;;;;4896402;29;20029;-84
2021/06/14 09:56:35;;;;;;;8.75;4.90;;;33.50;43.80;;;;;;4899576;29;20099;-83
2021/06/14 09:59:01;;;;;;;5.35;3.58;;;33.60;44.10;;;;;;4897481;29;20024;-82
2021/06/14 10:01:33;;;;;;;9.80;4.18;;;31.90;44.70;;;;;;4897081;29;20024;-82
2021/06/14 10:04:04;;;;;;;7.47;4.32;;;30.90;46.20;;;;;;4899530;29;20073;-84
2021/06/14 10:06:34;;;;;;;5.15;3.75;;;31.00;46.60;;;;;;4899539;29;20059;-82
2021/06/14 10:09:01;;;;;;;6.88;4.20;;;32.20;43.90;;;;;;4900654;29;20028;-82
2021/06/14 10:11:38;;;;;;;6.63;3.90;;;32.10;44.50;;;;;;4900922;29;20020;-83
2021/06/14 10:14:21;;;;;;;10.50;5.07;;;31.90;45.20;;;;;;4901378;29;20076;-82
2021/06/14 10:17:04;;;;;;;8.88;4.28;;;32.70;44.60;;;;;;4902627;29;20029;-84
2021/06/14 10:19:29;;;;;;;7.78;3.42;;;33.00;44.40;;;;;;4899600;29;20059;-82
2021/06/14 10:21:55;;;;;;;7.18;3.33;;;31.60;44.90;;;;;;4903267;29;20060;-83
2021/06/14 10:24:21;;;;;;;5.43;3.30;;;31.30;45.70;;;;;;4903828;29;20058;-83
2021/06/14 10:26:53;;;;;;;7.05;4.03;;;31.30;46.10;;;;;;4901824;29;20056;-83
2021/06/14 10:29:20;;;;;;;6.72;3.55;;;32.30;44.70;;;;;;4904617;29;20036;-82
2021/06/14 10:31:51;;;;;;;7.13;3.15;;;32.20;45.20;;;;;;4902019;29;20040;-81
2021/06/14 10:34:20;;;;;;;7.15;3.97;;;33.10;44.20;;;;;;4899812;29;20060;-81
2021/06/14 10:36:52;;;;;;;5.13;3.43;;;32.20;44.80;;;;;;4898459;29;20024;-83
2021/06/14 10:39:20;;;;;;;4.93;3.63;;;32.20;44.90;;;;;;4900719;29;20176;-83
2021/06/14 10:41:46;;;;;;;5.75;3.40;;;33.10;43.90;;;;;;4896695;29;20478;-83
2021/06/14 10:44:12;;;;;;;4.57;3.17;;;33.90;43.00;;;;;;4899223;29;20122;-83
2021/06/14 10:46:44;;;;;;;4.72;3.20;;;33.00;43.80;;;;;;4897313;29;20028;-83
2021/06/14 10:49:12;;;;;;;5.22;3.28;;;33.70;43.80;;;;;;4897113;29;20041;-82
2021/06/14 10:51:37;;;;;;;6.38;3.08;;;32.80;43.40;;;;;;4897662;29;20057;-83
2021/06/14 10:54:08;;;;;;;5.82;3.20;;;31.60;44.30;;;;;;4896615;29;20037;-82
2021/06/14 10:56:34;;;;;;;4.43;3.40;;;32.50;43.90;;;;;;4896750;29;20565;-82
2021/06/14 10:59:05;;;;;;;6.20;4.10;;;33.80;43.20;;;;;;4897894;29;20112;-81
2021/06/14 11:01:32;;;;;;;6.15;3.50;;;33.50;43.00;;;;;;4899315;29;20056;-81
2021/06/14 11:03:59;;;;;;;6.55;3.72;;;32.60;43.60;;;;;;4902300;29;20561;-81
2021/06/14 11:06:29;;;;;;;6.25;2.88;;;33.60;41.90;;;;;;4902887;29;20040;-83
2021/06/14 11:09:05;;;;;;;3.67;2.78;;;33.80;42.60;;;;;;4898503;29;20030;-80
2021/06/14 11:11:42;;;;;;;4.70;3.10;;;33.50;42.40;;;;;;4898165;29;20398;-79
2021/06/14 11:14:07;;;;;;;4.20;2.88;;;33.00;43.40;;;;;;4901556;29;20036;-80
2021/06/14 11:16:38;;;;;;;4.38;3.00;;;34.10;41.90;;;;;;4908607;29;20071;-79
2021/06/14 11:19:06;;;;;;;7.60;3.90;;;34.10;41.10;;;;;;4908660;29;20552;-81
2021/06/14 11:21:31;;;;;;;5.18;2.75;;;34.00;41.30;;;;;;4909982;29;20033;-80
2021/06/14 11:24:11;;;;;;;4.78;3.70;;;33.80;42.00;;;;;;4906667;29;20096;-80
2021/06/14 11:26:39;;;;;;;4.10;2.45;;;33.80;41.80;;;;;;4908213;29;20028;-80
2021/06/14 11:29:13;;;;;;;5.00;2.50;;;33.90;41.30;;;;;;4908430;29;20039;-80
2021/06/14 11:31:39;;;;;;;7.07;5.32;;;33.20;41.80;;;;;;4905920;29;20560;-80
2021/06/14 11:34:06;;;;;;;3.70;2.97;;;33.90;41.70;;;;;;4898649;29;20111;-81
2021/06/14 11:36:35;;;;;;;3.75;2.97;;;34.00;41.30;;;;;;4894949;29;20036;-80
2021/06/14 11:39:15;;;;;;;3.88;2.90;;;34.10;41.50;;;;;;4893943;29;20044;-80
2021/06/14 11:41:40;;;;;;;4.53;2.60;;;35.00;40.90;;;;;;4895087;29;20099;-80
2021/06/14 11:44:25;;;;;;;3.53;2.53;;;35.30;39.70;;;;;;4894975;29;20079;-80
2021/06/14 11:46:53;;;;;;;5.05;3.25;;;34.20;41.70;;;;;;4895500;29;20500;-81
2021/06/14 11:49:22;;;;;;;4.32;3.20;;;35.20;41.50;;;;;;4895104;29;20036;-81
2021/06/14 11:51:47;;;;;;;5.43;3.10;;;36.30;41.00;;;;;;4896312;29;20057;-82
2021/06/14 11:54:16;;;;;;;4.05;2.70;;;36.70;39.80;;;;;;4895589;29;20281;-82
2021/06/14 11:56:41;;;;;;;232.95;212.38;;;35.90;40.30;;;;;;4899244;29;20441;-83
2021/06/14 11:59:07;;;;;;;5.75;3.90;;;34.50;41.40;;;;;;4896250;29;20033;-78
2021/06/14 12:01:35;;;;;;;6.15;3.45;;;33.50;43.00;;;;;;4893885;29;20043;-78
2021/06/14 12:04:03;;;;;;;6.25;3.60;;;33.60;43.00;;;;;;4893926;29;20215;-79
2021/06/14 12:06:41;;;;;;;7.13;3.90;;;33.10;43.20;;;;;;4894413;29;20501;-78
2021/06/14 12:09:27;;;;;;;4.65;3.13;;;33.20;43.10;;;;;;4894657;29;20033;-80
2021/06/14 12:11:59;;;;;;;5.70;4.20;;;33.50;42.80;;;;;;4893986;29;20024;-78
2021/06/14 12:14:26;;;;;;;7.28;4.10;;;35.60;41.30;;;;;;4877420;29;20032;-79
2021/06/14 12:17:00;;;;;;;4.93;3.50;;;35.10;40.70;;;;;;4895335;29;20040;-80
2021/06/14 12:19:28;;;;;;;4.43;3.20;;;34.60;41.40;;;;;;4889174;29;20108;-81
2021/06/14 12:21:57;;;;;;;8.10;3.27;;;35.90;40.60;;;;;;4899857;29;20039;-80
2021/06/14 12:24:25;;;;;;;5.95;2.88;;;36.20;40.00;;;;;;4899896;29;20036;-80
2021/06/14 12:26:57;;;;;;;7.03;4.13;;;36.80;40.20;;;;;;4904840;29;20032;-79
2021/06/14 12:29:23;;;;;;;5.93;4.45;;;36.60;40.20;;;;;;4908059;29;20484;-79
2021/06/14 12:32:00;;;;;;;5.85;3.28;;;36.50;39.80;;;;;;4902914;29;20188;-78
2021/06/14 12:34:30;;;;;;;3.92;2.95;;;36.30;40.90;;;;;;4899821;29;20107;-79
2021/06/14 12:37:08;;;;;;;13.95;6.40;;;35.90;39.90;;;;;;4894036;29;20084;-78
2021/06/14 12:39:35;;;;;;;4.33;3.60;;;35.10;40.50;;;;;;4896110;29;20029;-79
2021/06/14 12:42:01;;;;;;;8.00;3.70;;;33.90;42.30;;;;;;4897770;29;20056;-80
2021/06/14 12:44:27;;;;;;;5.72;4.88;;;33.50;42.70;;;;;;4895160;29;20032;-79
2021/06/14 12:46:53;;;;;;;4.53;3.20;;;33.50;42.50;;;;;;4894298;29;20557;-79
2021/06/14 12:49:31;;;;;;;5.63;3.30;;;35.20;41.70;;;;;;4893565;29;20850;-79
2021/06/14 12:51:57;;;;;;;3.75;2.92;;;33.50;41.50;;;;;;4892985;29;20040;-79
2021/06/14 12:54:23;;;;;;;6.70;3.17;;;33.50;42.20;;;;;;4892701;29;20036;-76
2021/06/14 12:56:55;;;;;;;7.30;3.58;;;32.80;43.30;;;;;;4893292;29;20079;-78
2021/06/14 12:59:21;;;;;;;6.68;3.90;;;32.70;43.40;;;;;;4893146;29;20033;-79
2021/06/14 13:01:47;;;;;;;3.85;2.88;;;32.90;43.60;;;;;;4892799;29;20028;-77
2021/06/14 13:04:13;;;;;;;8.65;4.68;;;33.30;42.60;;;;;;4892651;29;20541;-78
2021/06/14 13:06:41;;;;;;;8.18;3.78;;;34.50;41.90;;;;;;4892455;29;20029;-77
2021/06/14 13:09:07;;;;;;;6.57;3.55;;;34.20;41.40;;;;;;4892772;29;20031;-79
2021/06/14 13:11:44;;;;;;;4.78;3.28;;;35.30;41.30;;;;;;4892341;29;20036;-78
2021/06/14 13:14:10;;;;;;;3.85;2.83;;;35.80;40.30;;;;;;4890157;29;20055;-77
2021/06/14 13:16:49;;;;;;;6.88;3.90;;;36.10;40.40;;;;;;4892632;29;20025;-78
2021/06/14 13:19:25;;;;;;;4.63;3.22;;;36.50;40.00;;;;;;4893501;29;20553;-79
2021/06/14 13:22:05;;;;;;;4.40;3.05;;;36.60;39.80;;;;;;4895099;29;20037;-79
2021/06/14 13:24:37;;;;;;;5.38;4.20;;;37.00;39.50;;;;;;4889911;29;20029;-77
2021/06/14 13:27:06;;;;;;;5.78;3.67;;;36.60;39.60;;;;;;4893897;29;20032;-79
2021/06/14 13:29:32;;;;;;;5.88;2.92;;;36.90;39.50;;;;;;4897000;29;20104;-78
2021/06/14 13:32:18;;;;;;;5.90;3.53;;;35.60;40.50;;;;;;4896303;29;20072;-77
2021/06/14 13:35:10;;;;;;;5.78;4.40;;;33.80;41.50;;;;;;4894022;29;20442;-77
2021/06/14 13:37:46;;;;;;;3.70;2.60;;;33.90;41.70;;;;;;4892722;29;20035;-77
2021/06/14 13:40:14;;;;;;;6.15;3.63;;;33.90;41.10;;;;;;4894999;29;20089;-78
2021/06/14 13:42:43;;;;;;;4.35;2.75;;;34.90;40.00;;;;;;4894692;29;20287;-78
2021/06/14 13:45:10;;;;;;;5.00;4.57;;;34.50;40.20;;;;;;4896614;29;20567;-80
2021/06/14 13:47:35;;;;;;;4.50;2.53;;;34.40;40.70;;;;;;4895642;29;20058;-77
2021/06/14 13:50:09;;;;;;;5.00;3.22;;;31.80;42.40;;;;;;4896235;29;20032;-78
2021/06/14 13:52:35;;;;;;;7.13;3.78;;;31.40;43.30;;;;;;4896389;29;20060;-77
2021/06/14 13:55:33;;;;;;;4.07;2.80;;;30.70;43.40;;;;;;4895212;29;20035;-80
2021/06/14 13:58:02;;;;;;;4.80;3.22;;;30.60;44.20;;;;;;4891792;29;20039;-78
2021/06/14 14:00:28;;;;;;;5.05;3.33;;;30.10;44.60;;;;;;4891322;29;20028;-76
2021/06/14 14:02:56;;;;;;;4.18;2.83;;;29.40;45.30;;;;;;4894732;29;20565;-78
2021/06/14 14:05:23;;;;;;;5.65;4.60;;;29.50;46.00;;;;;;4894560;29;20128;-77
2021/06/14 14:07:49;;;;;;;5.47;3.33;;;30.20;45.50;;;;;;4894494;29;20035;-77
2021/06/14 14:10:14;;;;;;;6.20;3.78;;;30.80;44.30;;;;;;4894843;29;20191;-78
2021/06/14 14:12:40;;;;;;;7.60;5.40;;;30.80;44.70;;;;;;4894655;29;20032;-78
2021/06/14 14:15:06;;;;;;;5.53;3.28;;;30.80;44.60;;;;;;4894739;29;20041;-78
2021/06/14 14:17:32;;;;;;;7.15;4.13;;;30.60;44.90;;;;;;4894109;29;20038;-78
2021/06/14 14:20:02;;;;;;;8.05;4.75;;;30.50;45.80;;;;;;4894620;29;20037;-78
2021/06/14 14:22:34;;;;;;;5.53;3.22;;;29.60;45.10;;;;;;4891476;29;20036;-79
2021/06/14 14:25:00;;;;;;;7.53;3.45;;;29.50;45.60;;;;;;4890451;29;20028;-78
2021/06/14 14:27:35;;;;;;;2.97;2.45;;;28.20;46.60;;;;;;4895713;29;20510;-78
2021/06/14 14:30:19;;;;;;;4.20;3.40;;;27.80;47.20;;;;;;4892743;29;20055;-78
2021/06/14 14:32:45;;;;;;;6.43;3.90;;;27.60;47.30;;;;;;4876793;29;20040;-77
2021/06/14 14:35:18;;;;;;;4.50;2.63;;;27.50;47.60;;;;;;4896140;29;20405;-77
2021/06/14 14:38:01;;;;;;;4.45;3.50;;;27.70;48.20;;;;;;4895517;29;20024;-76
2021/06/14 14:40:33;;;;;;;3.78;2.85;;;27.70;47.80;;;;;;4895732;29;20036;-76
2021/06/14 14:42:59;;;;;;;6.20;3.28;;;;;;;;;;4891720;29;20052;-76
2021/06/14 14:45:28;;;;;;;8.82;5.75;;;28.00;47.00;;;;;;4896097;29;20033;-77
2021/06/14 14:48:02;;;;;;;4.88;3.58;;;27.90;47.50;;;;;;4896838;29;20036;-78
2021/06/14 14:50:30;;;;;;;8.27;3.13;;;28.00;47.50;;;;;;4894000;29;20040;-77
2021/06/14 14:52:57;;;;;;;5.07;3.35;;;27.80;47.60;;;;;;4897571;29;20248;-81
2021/06/14 14:55:26;;;;;;;5.63;2.78;;;27.90;48.00;;;;;;4897876;29;20033;-77
2021/06/14 14:57:51;;;;;;;8.32;6.20;;;28.10;47.90;;;;;;4897856;29;20029;-78
2021/06/14 15:00:17;;;;;;;8.80;3.40;;;28.00;47.40;;;;;;4897717;29;20092;-79
2021/06/14 15:02:43;;;;;;;6.68;3.35;;;28.00;47.80;;;;;;4897779;29;20040;-80
2021/06/14 15:05:09;;;;;;;5.38;3.65;;;27.80;47.90;;;;;;4896437;29;20043;-78
2021/06/14 15:07:34;;;;;;;5.25;2.83;;;27.90;47.70;;;;;;4894898;29;20024;-78
2021/06/14 15:10:00;;;;;;;4.28;2.67;;;28.00;47.50;;;;;;4894691;29;20340;-79
2021/06/14 15:12:25;;;;;;;4.20;2.80;;;28.10;47.50;;;;;;4894893;29;20096;-78
2021/06/14 15:14:51;;;;;;;5.28;3.55;;;27.70;47.40;;;;;;4895769;29;20056;-78
2021/06/14 15:17:16;;;;;;;3.95;3.00;;;27.70;48.00;;;;;;4891262;29;20044;-77
2021/06/14 15:19:42;;;;;;;5.18;3.85;;;27.80;48.10;;;;;;4893337;29;20382;-77
2021/06/14 15:22:08;;;;;;;4.97;2.83;;;27.40;48.00;;;;;;4893619;29;20042;-78
2021/06/14 15:24:34;;;;;;;10.18;5.07;;;27.50;48.20;;;;;;4891909;29;20031;-78
2021/06/14 15:27:04;;;;;;;5.68;4.03;;;27.40;47.90;;;;;;4896326;29;20056;-78
2021/06/14 15:29:33;;;;;;;4.93;3.17;;;27.50;47.50;;;;;;4902471;29;20037;-77
2021/06/14 15:31:58;;;;;;;4.82;3.42;;;27.50;48.00;;;;;;4891966;29;20388;-76
2021/06/14 15:34:24;;;;;;;5.15;2.88;;;27.50;48.10;;;;;;4894865;29;20032;-77
2021/06/14 15:36:49;;;;;;;4.47;3.22;;;27.40;48.10;;;;;;4892422;29;20036;-77
2021/06/14 15:39:15;;;;;;;5.30;2.80;;;27.50;48.30;;;;;;4895891;29;20020;-78
2021/06/14 15:41:40;;;;;;;5.30;3.45;;;27.60;48.40;;;;;;4894287;29;20123;-76
2021/06/14 15:44:06;;;;;;;3.78;3.00;;;27.70;48.20;;;;;;4895987;29;20031;-76
2021/06/14 15:46:32;;;;;;;4.10;3.22;;;27.80;48.00;;;;;;4896633;29;20043;-78
2021/06/14 15:49:01;;;;;;;7.90;3.97;;;27.80;48.20;;;;;;4896919;29;20021;-77
2021/06/14 15:51:27;;;;;;;7.80;3.10;;;27.90;47.60;;;;;;4896978;29;20020;-78
2021/06/14 15:53:55;;;;;;;3.17;2.88;;;27.90;48.10;;;;;;4895718;29;20542;-76
2021/06/14 15:56:25;;;;;;;4.57;3.15;;;27.90;48.20;;;;;;4897211;29;20028;-77
2021/06/14 15:58:51;;;;;;;4.93;3.20;;;27.80;48.20;;;;;;4897385;29;20036;-76
2021/06/14 16:01:17;;;;;;;5.28;2.45;;;;;;;;;;4897064;29;20067;-78
2021/06/14 16:03:43;;;;;;;7.18;4.85;;;27.90;47.20;;;;;;4896060;29;20413;-78
2021/06/14 16:06:08;;;;;;;7.50;5.85;;;27.90;48.20;;;;;;4896698;29;20029;-77
2021/06/14 16:08:40;;;;;;;3.58;3.20;;;27.80;48.40;;;;;;4896059;29;20020;-78
2021/06/14 16:11:05;;;;;;;4.65;3.53;;;27.70;48.50;;;;;;4878861;29;20116;-78
2021/06/14 16:13:31;;;;;;;4.15;3.35;;;27.60;48.60;;;;;;4893957;29;20119;-77
2021/06/14 16:16:00;;;;;;;4.55;3.05;;;27.50;48.80;;;;;;4894159;29;20032;-78
2021/06/14 16:18:26;;;;;;;4.32;3.65;;;27.40;48.70;;;;;;4894045;29;20427;-77
2021/06/14 16:20:52;;;;;;;5.90;3.13;;;27.30;49.00;;;;;;4894503;29;20028;-77
2021/06/14 16:23:18;;;;;;;5.30;3.45;;;27.30;49.10;;;;;;4892818;29;20367;-79
2021/06/14 16:25:43;;;;;;;6.25;3.80;;;27.50;49.20;;;;;;4893911;29;20056;-79
2021/06/14 16:28:09;;;;;;;4.05;3.10;;;27.50;49.00;;;;;;4898492;29;20537;-78
2021/06/14 16:30:35;;;;;;;3.85;2.50;;;27.60;49.10;;;;;;4897807;29;20088;-79
2021/06/14 16:33:00;;;;;;;5.00;2.83;;;27.70;48.90;;;;;;4896928;29;20457;-78
2021/06/14 16:35:26;;;;;;;4.07;2.70;;;27.40;48.80;;;;;;4894124;29;20056;-79
2021/06/14 16:37:51;;;;;;;5.97;4.10;;;27.30;49.00;;;;;;4894207;29;20032;-79
2021/06/14 16:40:19;;;;;;;8.88;5.45;;;27.30;49.00;;;;;;4893654;29;20036;-79
2021/06/14 16:42:48;;;;;;;6.35;4.43;;;27.10;49.70;;;;;;4892648;29;20067;-79
2021/06/14 16:45:17;;;;;;;3.47;2.88;;;27.20;49.50;;;;;;4891465;29;20037;-79
2021/06/14 16:47:43;;;;;;;5.03;3.25;;;27.30;49.30;;;;;;4892470;29;20032;-78
2021/06/14 16:50:10;;;;;;;5.57;2.80;;;27.30;49.00;;;;;;4893275;29;20492;-79
2021/06/14 16:52:36;;;;;;;5.05;3.40;;;27.30;49.30;;;;;;4893699;29;20052;-78
2021/06/14 16:55:02;;;;;;;4.63;2.97;;;27.40;49.30;;;;;;4893391;29;20482;-78
2021/06/14 16:57:28;;;;;;;3.80;3.10;;;27.40;49.20;;;;;;4893595;29;20144;-77
2021/06/14 16:59:54;;;;;;;6.25;3.08;;;27.40;49.10;;;;;;4893367;29;20032;-77
2021/06/14 17:02:19;;;;;;;5.40;4.35;;;27.40;48.90;;;;;;4892860;29;20044;-79
2021/06/14 17:04:45;;;;;;;6.15;3.95;;;27.20;49.60;;;;;;4892837;29;20119;-79
2021/06/14 17:07:11;;;;;;;11.32;4.55;;;27.00;49.80;;;;;;4893426;29;20032;-77
2021/06/14 17:09:38;;;;;;;4.47;3.53;;;26.90;50.00;;;;;;4892912;29;20052;-78
2021/06/14 17:12:04;;;;;;;4.78;3.08;;;26.90;50.10;;;;;;4893282;29;20017;-78
2021/06/14 17:14:29;;;;;;;4.40;3.53;;;26.90;50.10;;;;;;4892901;29;20088;-78
2021/06/14 17:16:55;;;;;;;5.30;3.65;;;26.90;50.50;;;;;;4891721;29;20029;-77
2021/06/14 17:19:21;;;;;;;5.75;3.60;;;26.90;50.40;;;;;;4889787;29;20025;-77
2021/06/14 17:21:47;;;;;;;7.18;5.72;;;26.90;50.70;;;;;;4891077;29;20057;-78
2021/06/14 17:24:13;;;;;;;7.15;3.88;;;26.90;50.40;;;;;;4894993;29;20427;-78
2021/06/14 17:26:39;;;;;;;7.30;4.05;;;26.80;50.60;;;;;;4891955;29;20040;-78
2021/06/14 17:29:05;;;;;;;6.57;3.53;;;26.60;50.80;;;;;;4892440;29;20413;-79
2021/06/14 17:31:32;;;;;;;5.80;3.20;;;26.50;51.10;;;;;;4890273;29;20031;-77
2021/06/14 17:33:57;;;;;;;6.80;3.55;;;26.40;51.30;;;;;;4889724;29;20483;-78
2021/06/14 17:36:23;;;;;;;5.85;3.75;;;26.30;51.60;;;;;;4892598;29;20029;-77
2021/06/14 17:38:49;;;;;;;5.45;3.85;;;26.10;51.70;;;;;;4892892;29;20040;-77
2021/06/14 17:41:15;;;;;;;6.40;4.05;;;26.10;52.00;;;;;;4893079;29;20039;-78
2021/06/14 17:43:41;;;;;;;7.75;4.82;;;26.10;51.80;;;;;;4892751;29;20021;-78
2021/06/14 17:46:08;;;;;;;5.60;4.38;;;26.10;52.10;;;;;;4892705;29;20036;-78
2021/06/14 17:48:34;;;;;;;5.05;4.50;;;26.00;52.00;;;;;;4889493;29;20208;-79
2021/06/14 17:50:59;;;;;;;8.13;4.75;;;26.00;52.20;;;;;;4890589;29;20521;-79
2021/06/14 17:53:25;;;;;;;7.55;4.10;;;26.00;52.20;;;;;;4892814;29;20063;-80